Time;durP1;ratioP1;P1;durP2;ratioP2;P2;SDS_P1;SDS_P2;PMS_P1;PMS_P2;Temp;Humidity;BMP_temperature;BMP_pressure;BME280_temperature;BME280_humidity;BME280_pressure;Samples;Min_cycle;Max_cycle;Signal;HPM_P1;HPM_P2
2024/05/04 00:02:13;;;;;;;146.77;47.10;;;15.80;93.60;;;;;;5451852;26;20595;-65
2024/05/04 00:04:46;;;;;;;145.83;46.60;;;15.80;93.40;;;;;;5451608;26;20641;-69
2024/05/04 00:07:17;;;;;;;146.73;47.03;;;15.70;93.60;;;;;;5451692;26;21311;-61
2024/05/04 00:09:47;;;;;;;146.60;47.00;;;15.80;93.80;;;;;;5451717;26;20661;-52
2024/05/04 00:12:17;;;;;;;145.83;46.60;;;15.60;93.80;;;;;;5451911;26;20587;-64
2024/05/04 00:14:47;;;;;;;146.53;46.93;;;15.70;94.60;;;;;;5451616;26;20529;-52
2024/05/04 00:17:17;;;;;;;146.47;46.90;;;15.70;93.80;;;;;;5451875;26;21155;-54
2024/05/04 00:19:49;;;;;;;146.63;47.00;;;15.60;95.10;;;;;;5451333;26;20689;-53
2024/05/04 00:22:19;;;;;;;146.47;46.90;;;15.70;93.90;;;;;;5449003;26;20711;-55
2024/05/04 00:24:49;;;;;;;146.70;46.80;;;15.60;94.40;;;;;;5419322;26;20555;-52
2024/05/04 00:27:19;;;;;;;146.63;46.80;;;15.60;94.90;;;;;;5451631;26;20583;-55
2024/05/04 00:29:49;;;;;;;146.40;46.70;;;15.60;95.60;;;;;;5451388;26;20548;-65
2024/05/04 00:32:19;;;;;;;146.60;46.87;;;15.70;96.20;;;;;;5451687;26;20579;-53
2024/05/04 00:34:52;;;;;;;146.67;46.73;;;15.70;94.00;;;;;;5451404;26;20588;-53
2024/05/04 00:37:22;;;;;;;146.07;46.60;;;15.70;94.00;;;;;;5450995;26;20621;-50
2024/05/04 00:39:52;;;;;;;146.50;46.63;;;15.70;95.20;;;;;;5451163;26;20923;-56
2024/05/04 00:42:22;;;;;;;146.17;46.63;;;15.70;94.60;;;;;;5451596;26;21203;-50
2024/05/04 00:44:52;;;;;;;146.77;46.87;;;15.80;94.30;;;;;;5451053;26;20674;-51
2024/05/04 00:47:22;;;;;;;146.33;46.63;;;16.00;95.30;;;;;;5451234;26;20686;-50
2024/05/04 00:49:56;;;;;;;146.37;46.70;;;16.00;95.10;;;;;;5451007;26;20544;-57
2024/05/04 00:52:26;;;;;;;146.27;46.63;;;15.90;94.40;;;;;;5450896;26;20583;-50
2024/05/04 00:54:57;;;;;;;146.30;46.70;;;15.90;95.20;;;;;;5450768;26;20579;-63
2024/05/04 00:57:28;;;;;;;146.27;46.57;;;15.80;94.00;;;;;;5451042;26;20655;-51
2024/05/04 00:59:59;;;;;;;147.07;46.97;;;15.60;94.60;;;;;;5451089;26;20645;-56
2024/05/04 01:02:30;;;;;;;146.43;46.70;;;15.60;93.30;;;;;;5450918;26;20616;-52
2024/05/04 01:05:03;;;;;;;146.23;46.70;;;15.50;93.80;;;;;;5450483;26;20612;-61
2024/05/04 01:07:33;;;;;;;147.00;46.90;;;15.60;94.90;;;;;;5450539;26;20686;-55
2024/05/04 01:10:03;;;;;;;146.77;46.77;;;15.60;94.90;;;;;;5451907;26;20532;-54
2024/05/04 01:12:35;;;;;;;146.37;46.60;;;15.50;94.30;;;;;;5454468;26;20650;-50
2024/05/04 01:15:06;;;;;;;146.83;46.90;;;15.50;93.40;;;;;;5454414;26;20555;-51
2024/05/04 01:17:36;;;;;;;146.77;46.80;;;15.50;94.60;;;;;;5454243;26;20602;-52
2024/05/04 01:20:11;;;;;;;146.07;46.53;;;15.50;94.70;;;;;;5454203;26;20685;-52
2024/05/04 01:22:43;;;;;;;147.40;47.00;;;15.50;94.70;;;;;;5454059;26;20607;-53
2024/05/04 01:25:14;;;;;;;147.70;47.03;;;15.70;95.00;;;;;;5454257;26;20543;-52
2024/05/04 01:27:44;;;;;;;146.60;46.60;;;15.50;93.70;;;;;;5454263;26;20576;-52
2024/05/04 01:30:14;;;;;;;147.77;47.07;;;15.40;93.80;;;;;;5454263;26;20657;-51
2024/05/04 01:32:44;;;;;;;147.40;46.90;;;15.60;94.40;;;;;;5454231;26;20717;-51
2024/05/04 01:35:15;;;;;;;147.67;46.83;;;15.70;95.40;;;;;;5453902;26;20548;-51
2024/05/04 01:37:47;;;;;;;147.07;46.60;;;15.40;93.60;;;;;;5453752;26;20611;-51
2024/05/04 01:40:17;;;;;;;147.50;46.77;;;15.10;94.00;;;;;;5454191;26;20536;-51
2024/05/04 01:42:49;;;;;;;147.33;46.77;;;15.00;95.50;;;;;;5453997;26;20575;-51
2024/05/04 01:45:19;;;;;;;147.13;46.57;;;15.00;95.60;;;;;;5453863;26;20662;-55
2024/05/04 01:47:49;;;;;;;147.43;46.73;;;14.90;95.70;;;;;;5454039;26;20580;-50
2024/05/04 01:50:20;;;;;;;147.80;46.87;;;14.90;96.00;;;;;;5453582;26;21171;-52
2024/05/04 01:52:52;;;;;;;147.27;46.60;;;14.90;95.80;;;;;;5453438;26;20647;-50
2024/05/04 01:55:23;;;;;;;147.87;46.90;;;14.90;96.30;;;;;;5453602;26;21024;-51
2024/05/04 01:57:53;;;;;;;147.73;46.83;;;14.80;96.70;;;;;;5453867;26;20632;-50
2024/05/04 02:00:23;;;;;;;147.40;46.67;;;14.80;97.40;;;;;;5454032;26;20906;-51
2024/05/04 02:02:54;;;;;;;147.37;46.70;;;14.90;96.80;;;;;;5453681;26;20674;-65
2024/05/04 02:05:24;;;;;;;147.33;46.83;;;14.80;96.00;;;;;;5453478;26;20563;-51
2024/05/04 02:07:56;;;;;;;147.87;46.90;;;15.00;96.30;;;;;;5453260;26;20583;-51
2024/05/04 02:10:26;;;;;;;147.43;46.67;;;15.00;96.30;;;;;;5421870;26;20575;-54
2024/05/04 02:12:57;;;;;;;147.03;46.63;;;15.10;95.80;;;;;;5453757;26;20592;-52
2024/05/04 02:15:27;;;;;;;147.43;46.87;;;15.20;94.90;;;;;;5453466;26;21107;-53
2024/05/04 02:17:57;;;;;;;147.17;46.80;;;15.00;94.80;;;;;;5453596;26;20693;-51
2024/05/04 02:20:27;;;;;;;148.20;47.00;;;15.00;95.40;;;;;;5453541;26;20627;-55
2024/05/04 02:23:00;;;;;;;148.10;46.83;;;15.20;95.90;;;;;;5452281;26;20576;-60
2024/05/04 02:25:30;;;;;;;148.23;46.80;;;15.30;95.50;;;;;;5453387;26;20559;-62
2024/05/04 02:28:01;;;;;;;149.13;46.93;;;15.20;96.20;;;;;;5453480;26;21143;-57
2024/05/04 02:30:31;;;;;;;150.40;47.10;;;15.20;96.20;;;;;;5453562;26;20536;-66
2024/05/04 02:33:01;;;;;;;151.63;47.40;;;15.00;96.10;;;;;;5453371;26;20591;-56
2024/05/04 02:35:31;;;;;;;151.33;47.30;;;15.00;95.20;;;;;;5453450;26;20692;-60
2024/05/04 02:38:04;;;;;;;150.60;47.17;;;15.10;95.20;;;;;;5452631;26;20643;-59
2024/05/04 02:40:34;;;;;;;152.77;48.20;;;15.00;95.20;;;;;;5453408;26;20544;-64
2024/05/04 02:43:04;;;;;;;162.57;50.60;;;15.00;95.60;;;;;;5453181;26;20576;-50
2024/05/04 02:45:35;;;;;;;147.43;46.83;;;14.70;95.40;;;;;;5452981;26;20653;-50
2024/05/04 02:48:08;;;;;;;146.73;46.47;;;14.90;95.80;;;;;;5453122;26;20576;-52
2024/05/04 02:50:39;;;;;;;146.57;46.60;;;14.90;95.00;;;;;;5453457;26;20536;-66
2024/05/04 02:53:14;;;;;;;146.87;46.77;;;14.70;95.10;;;;;;5452513;26;20596;-50
2024/05/04 02:55:44;;;;;;;146.97;46.70;;;14.60;97.20;;;;;;5453022;26;20544;-50
2024/05/04 02:58:14;;;;;;;147.17;46.77;;;14.60;96.60;;;;;;5452584;26;20757;-50
2024/05/04 03:00:44;;;;;;;145.63;46.23;;;14.70;95.40;;;;;;5453287;26;20589;-50
2024/05/04 03:03:17;;;;;;;145.90;46.40;;;14.80;96.70;;;;;;5452482;26;20698;-50
2024/05/04 03:05:47;;;;;;;146.77;46.77;;;14.90;97.30;;;;;;5453014;26;20898;-50
2024/05/04 03:08:20;;;;;;;146.33;46.53;;;15.00;96.00;;;;;;5452373;26;20688;-50
2024/05/04 03:10:50;;;;;;;146.00;46.50;;;15.00;96.30;;;;;;5453421;26;20543;-50
2024/05/04 03:13:20;;;;;;;145.73;46.47;;;14.90;96.20;;;;;;5452809;26;20610;-50
2024/05/04 03:15:50;;;;;;;146.43;46.77;;;14.90;94.60;;;;;;5453152;26;21266;-50
2024/05/04 03:18:20;;;;;;;145.20;46.20;;;14.80;96.70;;;;;;5452536;26;20668;-50
2024/05/04 03:20:51;;;;;;;145.57;46.33;;;14.80;96.80;;;;;;5452634;26;20556;-50
2024/05/04 03:23:23;;;;;;;145.03;46.17;;;14.80;96.10;;;;;;5452052;26;20572;-50
2024/05/04 03:25:53;;;;;;;144.90;46.10;;;14.80;96.00;;;;;;5452880;26;20540;-50
2024/05/04 03:28:23;;;;;;;144.87;46.23;;;14.70;95.70;;;;;;5452633;26;20536;-51
2024/05/04 03:30:53;;;;;;;144.63;46.03;;;14.60;95.40;;;;;;5452796;26;20532;-51
2024/05/04 03:33:24;;;;;;;145.33;46.37;;;14.70;96.00;;;;;;5451024;26;20544;-51
2024/05/04 03:35:59;;;;;;;145.37;46.40;;;14.60;96.90;;;;;;5452559;26;20912;-50
2024/05/04 03:38:31;;;;;;;144.83;46.13;;;14.60;96.00;;;;;;5451533;26;20561;-51
2024/05/04 03:41:01;;;;;;;144.77;46.20;;;14.40;96.60;;;;;;5452574;26;20638;-50
2024/05/04 03:43:31;;;;;;;144.77;46.13;;;14.50;97.90;;;;;;5439407;26;20648;-55
2024/05/04 03:46:02;;;;;;;145.47;46.37;;;14.70;98.30;;;;;;5447436;26;21221;-55
2024/05/04 03:48:33;;;;;;;144.90;46.27;;;14.90;97.80;;;;;;5449334;26;20599;-55
2024/05/04 03:51:03;;;;;;;144.33;46.00;;;15.00;96.60;;;;;;5450732;26;20568;-50
2024/05/04 03:53:36;;;;;;;144.90;46.30;;;14.70;95.30;;;;;;5449363;26;20564;-50
2024/05/04 03:56:08;;;;;;;144.43;46.10;;;14.70;96.40;;;;;;5443794;26;20705;-53
2024/05/04 03:58:38;;;;;;;145.37;46.60;;;14.60;97.20;;;;;;5449413;26;20587;-51
2024/05/04 04:01:09;;;;;;;145.40;46.50;;;14.60;96.80;;;;;;5448159;26;20641;-50
2024/05/04 04:03:39;;;;;;;145.33;46.47;;;14.50;96.70;;;;;;5445719;26;20629;-51
2024/05/04 04:06:09;;;;;;;145.30;46.50;;;14.50;96.40;;;;;;5449444;26;20635;-50
2024/05/04 04:08:42;;;;;;;144.27;46.00;;;14.30;96.40;;;;;;5448669;26;21115;-50
2024/05/04 04:11:13;;;;;;;144.43;46.07;;;14.40;96.90;;;;;;5449958;26;21233;-50
2024/05/04 04:13:43;;;;;;;144.57;46.13;;;14.50;95.70;;;;;;5416050;26;20949;-50
2024/05/04 04:16:13;;;;;;;144.23;45.93;;;14.30;96.70;;;;;;5415985;26;20551;-50
2024/05/04 04:18:43;;;;;;;144.80;46.13;;;14.40;96.50;;;;;;5443802;26;20596;-50
2024/05/04 04:21:14;;;;;;;144.60;46.17;;;14.40;96.80;;;;;;5446728;26;21126;-49
2024/05/04 04:23:46;;;;;;;144.87;46.23;;;14.30;96.40;;;;;;5447832;26;20639;-49
2024/05/04 04:26:18;;;;;;;145.10;46.50;;;14.50;96.10;;;;;;5417259;26;20596;-49
2024/05/04 04:28:48;;;;;;;144.33;46.00;;;14.70;95.60;;;;;;5449144;26;20974;-49
2024/05/04 04:31:18;;;;;;;144.40;46.03;;;14.70;95.40;;;;;;5449481;26;20643;-50
2024/05/04 04:33:48;;;;;;;144.17;46.00;;;14.60;95.80;;;;;;5448350;26;20609;-49
2024/05/04 04:36:18;;;;;;;145.03;46.43;;;14.70;96.30;;;;;;5449053;26;20588;-50
2024/05/04 04:38:50;;;;;;;144.80;46.33;;;14.70;94.80;;;;;;5402391;26;21134;-55
2024/05/04 04:41:20;;;;;;;144.70;46.30;;;14.60;96.40;;;;;;5444526;26;20673;-55
2024/05/04 04:43:51;;;;;;;145.30;46.40;;;14.70;95.80;;;;;;5448697;26;20584;-55
2024/05/04 04:46:21;;;;;;;144.97;46.33;;;14.70;96.00;;;;;;5431793;26;21012;-55
2024/05/04 04:48:51;;;;;;;144.90;46.37;;;15.00;95.70;;;;;;5452452;26;20564;-55
2024/05/04 04:51:21;;;;;;;145.60;46.60;;;15.00;94.90;;;;;;5449680;26;20667;-55
2024/05/04 04:53:54;;;;;;;144.97;46.30;;;15.10;94.60;;;;;;5448596;26;20906;-55
2024/05/04 04:56:24;;;;;;;145.33;46.50;;;15.00;94.30;;;;;;5451557;26;20604;-55
2024/05/04 04:58:54;;;;;;;145.33;46.50;;;14.90;94.90;;;;;;5451440;26;20705;-55
2024/05/04 05:01:24;;;;;;;145.40;46.60;;;14.70;95.40;;;;;;5452234;26;20649;-57
2024/05/04 05:03:54;;;;;;;145.97;46.73;;;14.70;95.30;;;;;;5429519;26;20595;-55
2024/05/04 05:06:24;;;;;;;145.73;46.70;;;14.60;95.60;;;;;;5452195;26;21158;-56
2024/05/04 05:08:57;;;;;;;145.47;46.67;;;14.70;96.00;;;;;;5450111;26;20585;-56
2024/05/04 05:11:28;;;;;;;144.60;46.20;;;14.60;96.50;;;;;;5450507;26;20729;-55
2024/05/04 05:13:58;;;;;;;145.50;46.60;;;14.80;95.30;;;;;;5450521;26;20620;-55
2024/05/04 05:16:28;;;;;;;144.97;46.37;;;14.70;95.10;;;;;;5451723;26;20607;-54
2024/05/04 05:18:58;;;;;;;145.50;46.65;;;14.70;96.10;;;;;;5448532;26;20585;-55
2024/05/04 05:21:29;;;;;;;145.50;46.63;;;14.70;95.60;;;;;;5437250;26;20663;-56
2024/05/04 05:24:01;;;;;;;145.27;46.47;;;14.70;95.70;;;;;;5451064;26;20568;-52
2024/05/04 05:26:31;;;;;;;145.43;46.60;;;14.90;95.80;;;;;;5451959;26;20651;-53
2024/05/04 05:29:01;;;;;;;144.77;46.33;;;14.90;95.10;;;;;;5451178;26;20571;-52
2024/05/04 05:31:31;;;;;;;145.17;46.43;;;14.80;95.10;;;;;;5421254;26;20619;-52
2024/05/04 05:34:06;;;;;;;145.50;46.70;;;14.80;94.70;;;;;;5451102;26;20572;-51
2024/05/04 05:36:36;;;;;;;145.67;46.57;;;15.00;95.60;;;;;;5451696;26;20618;-52
2024/05/04 05:39:08;;;;;;;145.30;46.57;;;15.00;95.70;;;;;;5446077;26;20655;-52
2024/05/04 05:41:38;;;;;;;145.60;46.80;;;15.30;96.80;;;;;;5451842;26;21034;-52
2024/05/04 05:44:08;;;;;;;145.80;46.70;;;15.40;96.60;;;;;;5451146;26;20689;-52
2024/05/04 05:46:38;;;;;;;146.07;46.80;;;15.20;96.20;;;;;;5449362;26;20674;-55
2024/05/04 05:49:09;;;;;;;145.63;46.67;;;15.10;96.10;;;;;;5451546;26;20575;-52
2024/05/04 05:51:39;;;;;;;145.40;46.67;;;15.30;95.10;;;;;;5450503;26;20603;-51
2024/05/04 05:54:14;;;;;;;146.03;47.00;;;15.70;94.80;;;;;;5448204;26;20667;-51
2024/05/04 05:56:45;;;;;;;145.90;46.90;;;15.50;93.50;;;;;;5443362;26;20659;-52
2024/05/04 05:59:16;;;;;;;146.20;46.87;;;15.60;94.70;;;;;;5450400;26;20615;-50
2024/05/04 06:01:46;;;;;;;145.87;46.83;;;15.50;93.00;;;;;;5452186;26;21099;-52
2024/05/04 06:04:16;;;;;;;146.57;47.10;;;15.60;94.70;;;;;;5440143;26;20671;-50
2024/05/04 06:06:47;;;;;;;146.40;46.97;;;15.70;94.00;;;;;;5451225;26;21210;-52
2024/05/04 06:09:19;;;;;;;146.07;46.90;;;15.90;92.70;;;;;;5451006;26;20675;-51
2024/05/04 06:11:50;;;;;;;146.33;46.93;;;15.90;93.20;;;;;;5419395;26;20595;-52
2024/05/04 06:14:20;;;;;;;146.67;47.13;;;15.90;92.10;;;;;;5451088;26;20701;-52
2024/05/04 06:16:50;;;;;;;146.27;46.80;;;15.90;92.80;;;;;;5449621;26;20689;-53
2024/05/04 06:19:20;;;;;;;146.10;46.87;;;15.90;94.00;;;;;;5449311;26;20631;-52
2024/05/04 06:21:50;;;;;;;146.97;47.20;;;15.90;93.70;;;;;;5451857;26;20608;-53
2024/05/04 06:24:23;;;;;;;145.90;46.90;;;16.10;93.20;;;;;;5449613;26;21127;-52
2024/05/04 06:26:53;;;;;;;146.23;46.83;;;16.20;93.40;;;;;;5451736;26;20599;-51
2024/05/04 06:29:23;;;;;;;146.90;47.30;;;16.20;92.70;;;;;;5450804;26;20685;-52
2024/05/04 06:31:54;;;;;;;147.03;47.30;;;16.30;91.60;;;;;;5451164;26;20717;-52
2024/05/04 06:34:24;;;;;;;147.73;47.60;;;16.30;92.50;;;;;;5449950;26;20576;-52
2024/05/04 06:36:54;;;;;;;146.77;46.97;;;16.40;92.00;;;;;;5450668;26;20612;-51
2024/05/04 06:39:27;;;;;;;146.37;46.90;;;16.40;91.60;;;;;;5445279;26;20572;-52
2024/05/04 06:41:57;;;;;;;147.00;47.33;;;16.40;91.40;;;;;;5420935;26;20727;-52
2024/05/04 06:44:28;;;;;;;146.73;47.20;;;16.30;92.60;;;;;;5445898;26;20945;-52
2024/05/04 06:46:58;;;;;;;147.37;47.50;;;16.50;92.30;;;;;;5428098;26;21743;-52
2024/05/04 06:49:28;;;;;;;148.07;47.63;;;16.70;93.70;;;;;;5447351;26;20647;-53
2024/05/04 06:51:58;;;;;;;147.57;47.57;;;16.80;92.00;;;;;;5449455;26;20673;-54
2024/05/04 06:54:31;;;;;;;147.93;47.80;;;16.80;90.90;;;;;;5447692;26;20661;-52
2024/05/04 06:57:01;;;;;;;147.97;47.63;;;16.80;91.40;;;;;;5451185;26;20995;-49
2024/05/04 06:59:31;;;;;;;148.03;47.63;;;16.80;90.70;;;;;;5450184;26;21060;-50
2024/05/04 07:02:03;;;;;;;147.67;47.70;;;16.60;91.90;;;;;;5450595;26;21140;-49
2024/05/04 07:04:33;;;;;;;147.87;47.67;;;16.90;91.50;;;;;;5446625;26;20576;-49
2024/05/04 07:07:03;;;;;;;148.47;47.90;;;16.90;90.00;;;;;;5441585;26;20665;-49
2024/05/04 07:09:36;;;;;;;147.67;47.47;;;17.10;91.00;;;;;;5440728;26;20685;-50
2024/05/04 07:12:06;;;;;;;147.17;47.33;;;17.30;90.70;;;;;;5451299;26;20651;-54
2024/05/04 07:14:36;;;;;;;149.13;48.17;;;17.10;89.60;;;;;;5444299;26;20576;-53
2024/05/04 07:17:07;;;;;;;148.57;48.00;;;17.20;90.20;;;;;;5448999;26;20611;-52
2024/05/04 07:19:37;;;;;;;148.83;48.10;;;17.30;90.00;;;;;;5436089;26;20635;-52
2024/05/04 07:22:10;;;;;;;148.57;47.87;;;17.40;89.40;;;;;;5449995;26;21231;-53
2024/05/04 07:24:42;;;;;;;148.83;48.07;;;17.40;88.00;;;;;;5445645;26;20656;-51
2024/05/04 07:27:13;;;;;;;149.10;48.10;;;17.40;89.60;;;;;;5450089;26;20716;-53
2024/05/04 07:29:43;;;;;;;149.73;48.60;;;17.50;87.50;;;;;;5449765;26;20576;-53
2024/05/04 07:32:13;;;;;;;150.23;48.23;;;17.40;86.50;;;;;;5450751;26;20611;-53
2024/05/04 07:34:43;;;;;;;150.87;48.53;;;17.40;86.30;;;;;;5449269;26;20654;-52
2024/05/04 07:37:13;;;;;;;150.73;48.47;;;17.50;87.80;;;;;;5448495;26;20600;-52
2024/05/04 07:39:46;;;;;;;150.57;48.30;;;17.80;90.10;;;;;;5448358;26;20628;-52
2024/05/04 07:42:16;;;;;;;150.83;48.63;;;17.90;87.70;;;;;;5442659;26;20660;-53
2024/05/04 07:44:46;;;;;;;150.70;48.50;;;18.00;90.20;;;;;;5446524;26;20564;-53
2024/05/04 07:47:16;;;;;;;150.43;48.63;;;18.10;88.50;;;;;;5449664;26;20697;-52
2024/05/04 07:49:46;;;;;;;149.17;48.53;;;18.20;88.10;;;;;;5448279;26;20576;-51
2024/05/04 07:52:17;;;;;;;149.50;48.60;;;18.70;90.10;;;;;;5445978;26;20658;-50
2024/05/04 07:54:50;;;;;;;149.80;49.10;;;19.50;88.80;;;;;;5447967;26;20254;-50
2024/05/04 07:57:20;;;;;;;150.13;49.50;;;20.40;86.10;;;;;;5450134;26;20742;-50
2024/05/04 07:59:50;;;;;;;150.87;50.17;;;21.20;78.90;;;;;;5447427;26;20682;-55
2024/05/04 08:02:20;;;;;;;151.33;50.53;;;21.80;76.00;;;;;;5448390;26;20744;-55
2024/05/04 08:04:50;;;;;;;151.43;50.67;;;22.20;70.90;;;;;;5447632;26;20268;-52
2024/05/04 08:07:20;;;;;;;152.00;50.87;;;22.50;69.30;;;;;;5450496;26;20253;-52
2024/05/04 08:09:53;;;;;;;152.30;51.07;;;22.30;68.40;;;;;;5446053;26;20301;-57
2024/05/04 08:12:23;;;;;;;152.20;51.13;;;22.00;71.50;;;;;;5435710;26;20314;-51
2024/05/04 08:14:53;;;;;;;152.93;51.37;;;21.70;71.50;;;;;;5445506;26;20254;-50
2024/05/04 08:17:23;;;;;;;152.70;51.40;;;21.60;67.00;;;;;;5448565;26;20254;-55
2024/05/04 08:19:53;;;;;;;151.63;50.43;;;21.20;68.50;;;;;;5449762;26;20730;-56
2024/05/04 08:22:23;;;;;;;151.73;50.47;;;21.50;74.00;;;;;;5454298;26;20253;-56
2024/05/04 08:24:56;;;;;;;151.87;50.77;;;21.40;73.80;;;;;;5445014;26;20254;-53
2024/05/04 08:27:26;;;;;;;151.83;50.67;;;21.60;74.20;;;;;;5442041;26;20335;-50
2024/05/04 08:29:56;;;;;;;152.47;51.07;;;21.70;74.80;;;;;;5439968;26;20258;-51
2024/05/04 08:32:26;;;;;;;151.53;50.80;;;21.80;71.70;;;;;;5453700;26;20266;-52
2024/05/04 08:34:56;;;;;;;152.63;51.33;;;21.70;72.20;;;;;;5451754;26;20742;-53
2024/05/04 08:37:26;;;;;;;152.63;51.30;;;21.60;73.70;;;;;;5452074;26;20714;-58
2024/05/04 08:39:59;;;;;;;152.33;51.23;;;21.90;72.90;;;;;;5451765;26;20294;-55
2024/05/04 08:42:30;;;;;;;152.17;51.00;;;21.90;69.40;;;;;;5452621;26;20322;-56
2024/05/04 08:45:03;;;;;;;152.47;51.33;;;22.30;71.40;;;;;;5449581;26;20254;-57
2024/05/04 08:47:33;;;;;;;152.00;51.07;;;22.40;69.30;;;;;;5451915;26;20292;-56
2024/05/04 08:50:05;;;;;;;152.57;51.23;;;22.50;67.70;;;;;;5451590;26;20338;-56
2024/05/04 08:52:38;;;;;;;152.00;51.13;;;22.70;67.50;;;;;;5439376;26;20250;-57
2024/05/04 08:55:11;;;;;;;153.10;51.87;;;22.70;63.80;;;;;;5444368;26;20265;-56
2024/05/04 08:57:43;;;;;;;152.57;51.27;;;22.90;67.10;;;;;;5453270;26;20345;-57
2024/05/04 09:00:14;;;;;;;152.00;50.87;;;22.90;65.40;;;;;;5450978;26;20262;-58
2024/05/04 09:02:45;;;;;;;152.37;51.53;;;23.10;64.60;;;;;;5451434;26;20242;-56
2024/05/04 09:05:17;;;;;;;152.37;51.57;;;23.20;64.00;;;;;;5451836;26;20284;-57
2024/05/04 09:07:48;;;;;;;152.07;51.10;;;23.20;63.90;;;;;;5452571;26;20373;-59
2024/05/04 09:10:22;;;;;;;152.40;51.13;;;23.20;61.50;;;;;;5451647;26;20334;-58
2024/05/04 09:12:54;;;;;;;152.87;51.70;;;23.30;63.10;;;;;;5452482;26;20308;-58
2024/05/04 09:15:24;;;;;;;152.87;51.77;;;23.70;58.50;;;;;;5450927;26;20353;-57
2024/05/04 09:17:55;;;;;;;152.90;51.40;;;24.00;57.00;;;;;;5452556;26;20262;-57
2024/05/04 09:20:25;;;;;;;153.20;51.97;;;24.00;57.20;;;;;;5450818;26;20250;-57
2024/05/04 09:22:56;;;;;;;153.30;51.70;;;23.80;55.90;;;;;;5452565;26;20258;-56
2024/05/04 09:25:28;;;;;;;152.07;50.93;;;23.30;55.40;;;;;;5451795;26;20350;-56
2024/05/04 09:28:00;;;;;;;152.50;50.93;;;22.80;54.90;;;;;;5420309;26;20741;-57
2024/05/04 09:30:30;;;;;;;152.13;50.87;;;22.20;55.50;;;;;;5451497;26;20284;-56
2024/05/04 09:33:00;;;;;;;152.33;50.70;;;21.90;56.20;;;;;;5441993;26;20258;-50
2024/05/04 09:35:31;;;;;;;153.23;51.53;;;21.40;56.30;;;;;;5450787;26;20245;-49
2024/05/04 09:38:02;;;;;;;152.83;51.20;;;21.40;56.00;;;;;;5447228;26;20664;-49
2024/05/04 09:40:38;;;;;;;152.57;50.87;;;21.30;57.20;;;;;;5446538;26;20246;-50
2024/05/04 09:43:10;;;;;;;152.57;51.13;;;21.40;58.50;;;;;;5451675;26;20304;-52
2024/05/04 09:45:43;;;;;;;152.53;50.93;;;21.20;57.40;;;;;;5450166;26;20250;-50
2024/05/04 09:48:16;;;;;;;153.07;51.30;;;21.10;57.90;;;;;;5449784;26;20287;-51
2024/05/04 09:50:47;;;;;;;152.67;51.23;;;21.00;59.10;;;;;;5436725;26;20801;-51
2024/05/04 09:53:17;;;;;;;152.23;51.03;;;21.30;61.00;;;;;;5452769;26;20722;-51
2024/05/04 09:55:53;;;;;;;152.83;51.27;;;21.50;61.90;;;;;;5451072;26;20258;-50
2024/05/04 09:58:26;;;;;;;152.60;51.13;;;21.40;61.20;;;;;;5443025;26;20309;-50
2024/05/04 10:00:58;;;;;;;152.17;50.93;;;21.50;59.90;;;;;;5451684;26;20350;-50
2024/05/04 10:03:32;;;;;;;153.40;51.47;;;21.40;58.60;;;;;;5450326;26;20309;-50
2024/05/04 10:06:03;;;;;;;152.87;51.30;;;21.50;59.30;;;;;;5448745;26;20304;-50
2024/05/04 10:08:34;;;;;;;151.73;50.67;;;21.50;57.10;;;;;;5450560;26;20298;-50
2024/05/04 10:11:07;;;;;;;152.80;51.20;;;21.50;58.20;;;;;;5452012;26;20703;-50
2024/05/04 10:13:38;;;;;;;153.07;51.23;;;21.60;58.80;;;;;;5450530;26;20650;-50
2024/05/04 10:16:09;;;;;;;152.57;51.33;;;21.50;56.90;;;;;;5450821;26;20250;-50
2024/05/04 10:18:40;;;;;;;152.57;50.97;;;21.40;58.60;;;;;;5419018;26;20250;-50
2024/05/04 10:21:25;;;;;;;152.77;51.17;;;21.50;58.20;;;;;;5418797;26;20342;-50
2024/05/04 10:23:56;;;;;;;152.07;50.53;;;21.50;59.40;;;;;;5430809;26;20352;-51
2024/05/04 10:26:29;;;;;;;152.43;50.93;;;21.60;58.60;;;;;;5452005;26;20258;-50
2024/05/04 10:29:07;;;;;;;152.43;51.30;;;21.60;58.70;;;;;;5450148;26;20708;-50
2024/05/04 10:31:38;;;;;;;152.30;51.10;;;21.60;57.10;;;;;;5449632;26;20322;-50
2024/05/04 10:34:08;;;;;;;152.70;51.53;;;21.60;56.80;;;;;;5450761;26;20636;-51
2024/05/04 10:36:38;;;;;;;151.67;50.73;;;21.60;58.50;;;;;;5451173;26;20284;-50
2024/05/04 10:39:09;;;;;;;152.93;51.60;;;21.70;56.30;;;;;;5435252;26;20735;-51
2024/05/04 10:41:41;;;;;;;152.67;51.27;;;21.60;55.80;;;;;;5447976;26;20660;-50
2024/05/04 10:44:11;;;;;;;152.53;51.20;;;21.70;56.20;;;;;;5448488;26;20298;-52
2024/05/04 10:46:41;;;;;;;152.50;51.07;;;21.60;56.30;;;;;;5416909;26;20258;-50
2024/05/04 10:49:14;;;;;;;152.53;51.27;;;21.60;55.00;;;;;;5448062;26;20250;-51
2024/05/04 10:51:44;;;;;;;152.43;50.97;;;21.40;55.20;;;;;;5442497;26;20630;-51
2024/05/04 10:54:19;;;;;;;152.07;51.10;;;21.20;57.20;;;;;;5439874;26;20292;-52
2024/05/04 10:56:53;;;;;;;151.53;50.93;;;21.40;59.60;;;;;;5450698;26;20810;-55
2024/05/04 10:59:24;;;;;;;152.33;51.43;;;20.80;55.10;;;;;;5450147;26;20246;-54
2024/05/04 11:01:55;;;;;;;151.50;50.77;;;21.00;58.90;;;;;;5420049;26;20255;-51
2024/05/04 11:04:25;;;;;;;151.93;50.83;;;21.00;61.00;;;;;;5439849;26;20250;-53
2024/05/04 11:06:56;;;;;;;152.03;51.13;;;21.10;62.60;;;;;;5450894;26;20298;-52
2024/05/04 11:09:26;;;;;;;152.40;51.20;;;21.20;60.60;;;;;;5449849;26;20313;-51
2024/05/04 11:11:59;;;;;;;151.83;50.63;;;20.60;56.80;;;;;;5449188;26;20254;-51
2024/05/04 11:14:30;;;;;;;151.33;50.57;;;20.80;59.50;;;;;;5449482;26;20262;-54
2024/05/04 11:17:03;;;;;;;151.27;50.33;;;20.90;60.10;;;;;;5450600;26;20265;-51
2024/05/04 11:19:34;;;;;;;151.87;50.83;;;20.80;58.90;;;;;;5445575;26;20828;-54
2024/05/04 11:22:04;;;;;;;151.67;50.70;;;20.80;58.70;;;;;;5444966;26;20255;-50
2024/05/04 11:24:38;;;;;;;150.73;50.13;;;20.80;58.90;;;;;;5448732;26;20254;-50
2024/05/04 11:27:10;;;;;;;151.17;50.30;;;20.60;60.00;;;;;;5449992;26;20292;-52
2024/05/04 11:29:40;;;;;;;151.37;50.90;;;20.50;59.90;;;;;;5436031;26;21136;-53
2024/05/04 11:32:10;;;;;;;151.73;50.73;;;20.50;60.50;;;;;;5450860;26;20343;-51
2024/05/04 11:34:40;;;;;;;151.87;50.90;;;20.40;61.90;;;;;;5449034;26;20289;-51
2024/05/04 11:37:10;;;;;;;151.10;50.07;;;20.40;60.50;;;;;;5414736;26;20266;-54
2024/05/04 11:39:40;;;;;;;152.03;50.77;;;20.10;61.60;;;;;;5445568;26;20647;-52
2024/05/04 11:42:13;;;;;;;152.17;50.67;;;20.10;63.60;;;;;;5450231;26;20254;-50
2024/05/04 11:44:43;;;;;;;150.70;50.03;;;20.10;64.50;;;;;;5448126;26;20323;-50
2024/05/04 11:47:13;;;;;;;150.93;50.23;;;20.00;65.10;;;;;;5448332;26;20327;-49
2024/05/04 11:49:43;;;;;;;150.90;49.93;;;19.90;66.60;;;;;;5431649;26;20625;-50
2024/05/04 11:52:13;;;;;;;151.53;50.30;;;19.90;66.60;;;;;;5444208;26;20652;-52
2024/05/04 11:54:44;;;;;;;152.10;50.67;;;19.90;65.90;;;;;;5427271;26;20252;-52
2024/05/04 11:57:16;;;;;;;150.60;49.67;;;19.90;66.70;;;;;;5442608;26;20810;-53
2024/05/04 11:59:46;;;;;;;151.83;50.53;;;20.00;65.30;;;;;;5448376;26;20345;-51
2024/05/04 12:02:16;;;;;;;150.57;49.90;;;19.90;65.20;;;;;;5436141;26;20263;-51
2024/05/04 12:04:47;;;;;;;150.97;50.07;;;19.90;66.50;;;;;;5445929;26;20261;-51
2024/05/04 12:07:17;;;;;;;150.67;49.80;;;19.90;67.50;;;;;;5449050;26;20256;-52
2024/05/04 12:09:47;;;;;;;150.83;49.70;;;19.90;67.80;;;;;;5449023;26;20254;-53
2024/05/04 12:12:20;;;;;;;151.37;50.30;;;20.00;67.10;;;;;;5443900;26;20581;-53
2024/05/04 12:14:50;;;;;;;151.27;50.23;;;20.10;67.10;;;;;;5449179;26;20258;-53
2024/05/04 12:17:21;;;;;;;150.97;50.10;;;20.00;68.10;;;;;;5445263;26;20295;-54
2024/05/04 12:19:51;;;;;;;150.43;49.70;;;20.10;69.10;;;;;;5445007;26;20802;-51
2024/05/04 12:22:21;;;;;;;150.67;50.03;;;20.20;68.50;;;;;;5447045;26;20292;-51
2024/05/04 12:24:51;;;;;;;150.73;50.10;;;20.20;68.90;;;;;;5434750;26;20293;-52
2024/05/04 12:27:24;;;;;;;151.23;50.27;;;20.30;66.80;;;;;;5449779;26;20253;-54
2024/05/04 12:29:55;;;;;;;150.73;49.70;;;20.30;68.20;;;;;;5448049;26;20247;-50
2024/05/04 12:32:25;;;;;;;151.60;50.63;;;20.10;67.40;;;;;;5451124;26;20266;-52
2024/05/04 12:34:55;;;;;;;151.57;50.17;;;20.00;67.70;;;;;;5448616;26;20254;-52
2024/05/04 12:37:25;;;;;;;151.00;49.83;;;20.00;67.00;;;;;;5443890;26;20263;-54